sensor_id;sensor_type;location;lat;lon;timestamp;P1;durP1;ratioP1;P2;durP2;ratioP2
22697;SDS011;11516;51.612;7.510;2022-12-08T00:01:59;21.37;;;15.30;;
22697;SDS011;11516;51.612;7.510;2022-12-08T00:04:25;19.75;;;14.00;;
22697;SDS011;11516;51.612;7.510;2022-12-08T00:06:51;19.23;;;14.00;;
22697;SDS011;11516;51.612;7.510;2022-12-08T00:09:38;19.33;;;13.75;;
22697;SDS011;11516;51.612;7.510;2022-12-08T00:12:06;17.60;;;14.02;;
22697;SDS011;11516;51.612;7.510;2022-12-08T00:14:34;18.75;;;13.48;;
22697;SDS011;11516;51.612;7.510;2022-12-08T00:17:03;19.27;;;13.15;;
22697;SDS011;11516;51.612;7.510;2022-12-08T00:19:30;15.98;;;12.88;;
22697;SDS011;11516;51.612;7.510;2022-12-08T00:21:56;20.67;;;13.45;;
22697;SDS011;11516;51.612;7.510;2022-12-08T00:24:23;19.40;;;13.63;;
22697;SDS011;11516;51.612;7.510;2022-12-08T00:26:49;18.92;;;12.48;;
22697;SDS011;11516;51.612;7.510;2022-12-08T00:29:15;17.50;;;12.45;;
22697;SDS011;11516;51.612;7.510;2022-12-08T00:31:41;16.73;;;12.70;;
22697;SDS011;11516;51.612;7.510;2022-12-08T00:34:07;17.77;;;12.30;;
22697;SDS011;11516;51.612;7.510;2022-12-08T00:36:33;17.60;;;13.20;;
22697;SDS011;11516;51.612;7.510;2022-12-08T00:38:59;20.85;;;12.60;;
22697;SDS011;11516;51.612;7.510;2022-12-08T00:41:26;20.27;;;13.55;;
22697;SDS011;11516;51.612;7.510;2022-12-08T00:44:12;19.23;;;13.98;;
22697;SDS011;11516;51.612;7.510;2022-12-08T00:46:39;18.67;;;15.18;;
22697;SDS011;11516;51.612;7.510;2022-12-08T00:49:05;24.02;;;16.67;;
22697;SDS011;11516;51.612;7.510;2022-12-08T00:51:31;21.33;;;16.42;;
22697;SDS011;11516;51.612;7.510;2022-12-08T00:53:56;23.17;;;17.27;;
22697;SDS011;11516;51.612;7.510;2022-12-08T00:56:22;24.27;;;19.13;;
22697;SDS011;11516;51.612;7.510;2022-12-08T00:58:48;25.65;;;19.00;;
22697;SDS011;11516;51.612;7.510;2022-12-08T01:01:13;25.67;;;20.73;;
22697;SDS011;11516;51.612;7.510;2022-12-08T01:03:40;27.25;;;21.23;;
22697;SDS011;11516;51.612;7.510;2022-12-08T01:06:06;26.85;;;21.00;;
22697;SDS011;11516;51.612;7.510;2022-12-08T01:08:32;28.95;;;22.90;;
22697;SDS011;11516;51.612;7.510;2022-12-08T01:11:02;30.98;;;23.48;;
22697;SDS011;11516;51.612;7.510;2022-12-08T01:13:33;34.03;;;23.92;;
22697;SDS011;11516;51.612;7.510;2022-12-08T01:15:59;32.05;;;24.48;;
22697;SDS011;11516;51.612;7.510;2022-12-08T01:18:27;30.00;;;25.07;;
22697;SDS011;11516;51.612;7.510;2022-12-08T01:20:54;32.10;;;25.00;;
22697;SDS011;11516;51.612;7.510;2022-12-08T01:23:20;34.23;;;24.53;;
22697;SDS011;11516;51.612;7.510;2022-12-08T01:25:45;31.17;;;24.70;;
22697;SDS011;11516;51.612;7.510;2022-12-08T01:28:11;30.30;;;25.17;;
22697;SDS011;11516;51.612;7.510;2022-12-08T01:30:37;35.03;;;23.85;;
22697;SDS011;11516;51.612;7.510;2022-12-08T01:33:04;34.10;;;24.23;;
22697;SDS011;11516;51.612;7.510;2022-12-08T01:35:29;29.02;;;23.50;;
22697;SDS011;11516;51.612;7.510;2022-12-08T01:37:55;30.42;;;24.27;;
22697;SDS011;11516;51.612;7.510;2022-12-08T01:40:21;31.42;;;23.92;;
22697;SDS011;11516;51.612;7.510;2022-12-08T01:42:46;29.53;;;23.33;;
22697;SDS011;11516;51.612;7.510;2022-12-08T01:45:14;30.42;;;24.52;;
22697;SDS011;11516;51.612;7.510;2022-12-08T01:47:42;33.37;;;25.17;;
22697;SDS011;11516;51.612;7.510;2022-12-08T01:50:11;27.20;;;22.95;;
22697;SDS011;11516;51.612;7.510;2022-12-08T01:52:43;28.77;;;23.67;;
22697;SDS011;11516;51.612;7.510;2022-12-08T01:57:44;29.60;;;23.35;;
22697;SDS011;11516;51.612;7.510;2022-12-08T02:00:16;29.10;;;22.13;;
22697;SDS011;11516;51.612;7.510;2022-12-08T02:05:22;27.58;;;21.63;;
22697;SDS011;11516;51.612;7.510;2022-12-08T02:07:51;29.50;;;21.98;;
22697;SDS011;11516;51.612;7.510;2022-12-08T02:10:20;25.60;;;20.13;;
22697;SDS011;11516;51.612;7.510;2022-12-08T02:12:47;28.30;;;20.93;;
22697;SDS011;11516;51.612;7.510;2022-12-08T02:15:16;26.80;;;19.63;;
22697;SDS011;11516;51.612;7.510;2022-12-08T02:20:28;22.73;;;19.00;;
22697;SDS011;11516;51.612;7.510;2022-12-08T02:26:09;23.70;;;19.27;;
22697;SDS011;11516;51.612;7.510;2022-12-08T02:31:48;25.98;;;19.83;;
22697;SDS011;11516;51.612;7.510;2022-12-08T02:34:52;23.80;;;19.30;;
22697;SDS011;11516;51.612;7.510;2022-12-08T02:37:30;23.55;;;19.25;;
22697;SDS011;11516;51.612;7.510;2022-12-08T02:40:10;22.15;;;17.95;;
22697;SDS011;11516;51.612;7.510;2022-12-08T02:42:57;24.90;;;20.05;;
22697;SDS011;11516;51.612;7.510;2022-12-08T02:48:08;25.88;;;20.17;;
22697;SDS011;11516;51.612;7.510;2022-12-08T02:50:34;24.83;;;21.23;;
22697;SDS011;11516;51.612;7.510;2022-12-08T02:52:59;25.33;;;21.20;;
22697;SDS011;11516;51.612;7.510;2022-12-08T02:55:32;33.35;;;22.23;;
22697;SDS011;11516;51.612;7.510;2022-12-08T03:01:07;25.83;;;21.65;;
22697;SDS011;11516;51.612;7.510;2022-12-08T03:04:01;27.85;;;21.88;;
22697;SDS011;11516;51.612;7.510;2022-12-08T03:06:41;29.17;;;22.33;;
22697;SDS011;11516;51.612;7.510;2022-12-08T03:14:13;29.98;;;22.98;;
22697;SDS011;11516;51.612;7.510;2022-12-08T03:16:42;29.42;;;23.58;;
22697;SDS011;11516;51.612;7.510;2022-12-08T03:19:26;29.45;;;23.05;;
22697;SDS011;11516;51.612;7.510;2022-12-08T03:21:57;29.85;;;23.90;;
22697;SDS011;11516;51.612;7.510;2022-12-08T03:24:27;30.60;;;22.95;;
22697;SDS011;11516;51.612;7.510;2022-12-08T03:27:00;31.00;;;23.38;;
22697;SDS011;11516;51.612;7.510;2022-12-08T03:29:29;32.67;;;23.95;;
22697;SDS011;11516;51.612;7.510;2022-12-08T03:32:00;30.52;;;23.08;;
22697;SDS011;11516;51.612;7.510;2022-12-08T03:34:48;30.33;;;23.40;;
22697;SDS011;11516;51.612;7.510;2022-12-08T03:37:15;32.00;;;25.08;;
22697;SDS011;11516;51.612;7.510;2022-12-08T03:39:41;33.58;;;24.50;;
22697;SDS011;11516;51.612;7.510;2022-12-08T03:42:07;32.47;;;24.10;;
22697;SDS011;11516;51.612;7.510;2022-12-08T03:44:33;34.10;;;25.40;;
22697;SDS011;11516;51.612;7.510;2022-12-08T03:46:58;33.10;;;24.60;;
22697;SDS011;11516;51.612;7.510;2022-12-08T03:49:24;35.10;;;25.30;;
22697;SDS011;11516;51.612;7.510;2022-12-08T03:51:49;33.35;;;25.58;;
22697;SDS011;11516;51.612;7.510;2022-12-08T03:54:15;33.30;;;24.90;;
22697;SDS011;11516;51.612;7.510;2022-12-08T03:56:40;31.53;;;24.23;;
22697;SDS011;11516;51.612;7.510;2022-12-08T03:59:06;32.60;;;25.25;;
22697;SDS011;11516;51.612;7.510;2022-12-08T04:01:32;34.83;;;25.40;;
22697;SDS011;11516;51.612;7.510;2022-12-08T04:03:57;32.97;;;26.13;;
22697;SDS011;11516;51.612;7.510;2022-12-08T04:06:23;34.70;;;26.40;;
22697;SDS011;11516;51.612;7.510;2022-12-08T04:08:49;33.70;;;25.95;;
22697;SDS011;11516;51.612;7.510;2022-12-08T04:11:16;35.10;;;25.88;;
22697;SDS011;11516;51.612;7.510;2022-12-08T04:13:42;34.92;;;25.88;;
22697;SDS011;11516;51.612;7.510;2022-12-08T04:16:13;34.07;;;26.13;;
22697;SDS011;11516;51.612;7.510;2022-12-08T04:18:48;36.40;;;26.08;;
22697;SDS011;11516;51.612;7.510;2022-12-08T04:21:14;37.97;;;27.17;;
22697;SDS011;11516;51.612;7.510;2022-12-08T04:23:40;37.85;;;26.58;;
22697;SDS011;11516;51.612;7.510;2022-12-08T04:26:06;37.47;;;26.48;;
22697;SDS011;11516;51.612;7.510;2022-12-08T04:28:32;41.57;;;28.87;;
22697;SDS011;11516;51.612;7.510;2022-12-08T04:30:58;39.92;;;27.45;;
22697;SDS011;11516;51.612;7.510;2022-12-08T04:33:23;37.63;;;27.93;;
22697;SDS011;11516;51.612;7.510;2022-12-08T04:35:49;37.55;;;26.70;;
22697;SDS011;11516;51.612;7.510;2022-12-08T04:38:14;36.78;;;26.75;;
22697;SDS011;11516;51.612;7.510;2022-12-08T04:40:40;38.47;;;28.05;;
22697;SDS011;11516;51.612;7.510;2022-12-08T04:43:06;38.47;;;26.73;;
22697;SDS011;11516;51.612;7.510;2022-12-08T04:45:32;41.42;;;26.85;;
22697;SDS011;11516;51.612;7.510;2022-12-08T04:47:58;39.58;;;28.02;;
22697;SDS011;11516;51.612;7.510;2022-12-08T04:50:25;38.00;;;25.65;;
22697;SDS011;11516;51.612;7.510;2022-12-08T04:52:51;36.83;;;27.73;;
22697;SDS011;11516;51.612;7.510;2022-12-08T04:55:17;39.97;;;27.88;;
22697;SDS011;11516;51.612;7.510;2022-12-08T04:57:43;40.83;;;28.80;;
22697;SDS011;11516;51.612;7.510;2022-12-08T05:00:08;38.55;;;28.25;;
22697;SDS011;11516;51.612;7.510;2022-12-08T05:02:35;38.95;;;27.95;;
22697;SDS011;11516;51.612;7.510;2022-12-08T05:05:00;39.23;;;28.03;;
22697;SDS011;11516;51.612;7.510;2022-12-08T05:07:26;40.53;;;29.52;;
22697;SDS011;11516;51.612;7.510;2022-12-08T05:09:51;39.80;;;28.83;;
22697;SDS011;11516;51.612;7.510;2022-12-08T05:12:17;41.03;;;28.90;;
22697;SDS011;11516;51.612;7.510;2022-12-08T05:14:42;39.63;;;27.52;;
22697;SDS011;11516;51.612;7.510;2022-12-08T05:17:08;39.80;;;27.43;;
22697;SDS011;11516;51.612;7.510;2022-12-08T05:19:33;35.03;;;26.38;;
22697;SDS011;11516;51.612;7.510;2022-12-08T05:21:59;35.08;;;25.67;;
22697;SDS011;11516;51.612;7.510;2022-12-08T05:24:25;36.47;;;26.20;;
22697;SDS011;11516;51.612;7.510;2022-12-08T05:26:50;35.83;;;26.30;;
22697;SDS011;11516;51.612;7.510;2022-12-08T05:29:16;38.20;;;27.27;;
22697;SDS011;11516;51.612;7.510;2022-12-08T05:31:41;36.77;;;26.03;;
22697;SDS011;11516;51.612;7.510;2022-12-08T05:34:07;36.53;;;26.55;;
22697;SDS011;11516;51.612;7.510;2022-12-08T05:36:32;39.13;;;27.83;;
22697;SDS011;11516;51.612;7.510;2022-12-08T05:38:58;39.43;;;26.97;;
22697;SDS011;11516;51.612;7.510;2022-12-08T05:41:23;35.42;;;26.00;;
22697;SDS011;11516;51.612;7.510;2022-12-08T05:43:49;37.47;;;25.80;;
22697;SDS011;11516;51.612;7.510;2022-12-08T05:46:15;34.73;;;26.13;;
22697;SDS011;11516;51.612;7.510;2022-12-08T05:48:40;35.42;;;25.73;;
22697;SDS011;11516;51.612;7.510;2022-12-08T05:51:07;36.85;;;25.85;;
22697;SDS011;11516;51.612;7.510;2022-12-08T05:53:41;33.35;;;23.60;;
22697;SDS011;11516;51.612;7.510;2022-12-08T05:56:06;33.40;;;23.90;;
22697;SDS011;11516;51.612;7.510;2022-12-08T05:58:34;34.77;;;23.73;;
22697;SDS011;11516;51.612;7.510;2022-12-08T06:00:59;31.05;;;22.50;;
22697;SDS011;11516;51.612;7.510;2022-12-08T06:03:25;32.50;;;22.40;;
22697;SDS011;11516;51.612;7.510;2022-12-08T06:05:50;27.80;;;20.20;;
22697;SDS011;11516;51.612;7.510;2022-12-08T06:08:16;27.02;;;20.38;;
22697;SDS011;11516;51.612;7.510;2022-12-08T06:10:42;31.17;;;21.03;;
22697;SDS011;11516;51.612;7.510;2022-12-08T06:13:09;28.83;;;21.58;;
22697;SDS011;11516;51.612;7.510;2022-12-08T06:15:35;28.60;;;21.20;;
22697;SDS011;11516;51.612;7.510;2022-12-08T06:18:02;29.70;;;21.15;;
22697;SDS011;11516;51.612;7.510;2022-12-08T06:20:28;28.48;;;21.23;;
22697;SDS011;11516;51.612;7.510;2022-12-08T06:22:54;31.13;;;22.00;;
22697;SDS011;11516;51.612;7.510;2022-12-08T06:25:20;30.15;;;21.88;;
22697;SDS011;11516;51.612;7.510;2022-12-08T06:27:46;31.45;;;22.00;;
22697;SDS011;11516;51.612;7.510;2022-12-08T06:30:12;31.70;;;22.77;;
22697;SDS011;11516;51.612;7.510;2022-12-08T06:32:38;34.17;;;23.52;;
22697;SDS011;11516;51.612;7.510;2022-12-08T06:35:03;37.28;;;24.83;;
22697;SDS011;11516;51.612;7.510;2022-12-08T06:37:29;33.38;;;23.33;;
22697;SDS011;11516;51.612;7.510;2022-12-08T06:39:55;33.90;;;22.73;;
22697;SDS011;11516;51.612;7.510;2022-12-08T06:42:21;34.75;;;23.67;;
22697;SDS011;11516;51.612;7.510;2022-12-08T06:45:05;33.60;;;23.75;;
22697;SDS011;11516;51.612;7.510;2022-12-08T06:47:31;33.72;;;23.77;;
22697;SDS011;11516;51.612;7.510;2022-12-08T06:49:56;31.97;;;22.73;;
22697;SDS011;11516;51.612;7.510;2022-12-08T06:52:22;35.30;;;23.70;;
22697;SDS011;11516;51.612;7.510;2022-12-08T06:54:47;32.13;;;21.85;;
22697;SDS011;11516;51.612;7.510;2022-12-08T06:57:13;29.50;;;18.48;;
22697;SDS011;11516;51.612;7.510;2022-12-08T06:59:38;27.47;;;15.60;;
22697;SDS011;11516;51.612;7.510;2022-12-08T07:02:04;7.03;;;4.40;;
22697;SDS011;11516;51.612;7.510;2022-12-08T07:04:30;1.70;;;1.05;;
22697;SDS011;11516;51.612;7.510;2022-12-08T07:06:55;4.10;;;2.33;;
22697;SDS011;11516;51.612;7.510;2022-12-08T07:09:21;2.65;;;1.90;;
22697;SDS011;11516;51.612;7.510;2022-12-08T07:11:46;2.85;;;2.65;;
22697;SDS011;11516;51.612;7.510;2022-12-08T07:14:12;2.57;;;1.77;;
22697;SDS011;11516;51.612;7.510;2022-12-08T07:16:37;2.28;;;1.58;;
22697;SDS011;11516;51.612;7.510;2022-12-08T07:19:04;2.00;;;1.40;;
22697;SDS011;11516;51.612;7.510;2022-12-08T07:21:30;3.03;;;1.98;;
22697;SDS011;11516;51.612;7.510;2022-12-08T07:23:55;1.23;;;1.13;;
22697;SDS011;11516;51.612;7.510;2022-12-08T07:26:21;3.53;;;1.63;;
22697;SDS011;11516;51.612;7.510;2022-12-08T07:28:46;2.13;;;1.00;;
22697;SDS011;11516;51.612;7.510;2022-12-08T07:31:17;1.10;;;1.10;;
22697;SDS011;11516;51.612;7.510;2022-12-08T07:33:43;2.30;;;1.80;;
22697;SDS011;11516;51.612;7.510;2022-12-08T07:36:10;2.00;;;1.53;;
22697;SDS011;11516;51.612;7.510;2022-12-08T07:38:36;1.63;;;1.30;;
22697;SDS011;11516;51.612;7.510;2022-12-08T07:41:02;0.93;;;0.93;;
22697;SDS011;11516;51.612;7.510;2022-12-08T07:43:27;1.67;;;1.57;;
22697;SDS011;11516;51.612;7.510;2022-12-08T07:45:53;2.20;;;2.08;;
22697;SDS011;11516;51.612;7.510;2022-12-08T07:48:19;0.68;;;0.68;;
22697;SDS011;11516;51.612;7.510;2022-12-08T07:50:44;2.80;;;1.43;;
22697;SDS011;11516;51.612;7.510;2022-12-08T07:53:11;0.77;;;0.77;;
22697;SDS011;11516;51.612;7.510;2022-12-08T07:55:40;0.70;;;0.70;;
22697;SDS011;11516;51.612;7.510;2022-12-08T07:58:07;2.22;;;1.60;;
22697;SDS011;11516;51.612;7.510;2022-12-08T08:00:33;1.40;;;1.30;;
22697;SDS011;11516;51.612;7.510;2022-12-08T08:02:59;1.10;;;1.05;;
22697;SDS011;11516;51.612;7.510;2022-12-08T08:05:24;2.13;;;1.63;;
22697;SDS011;11516;51.612;7.510;2022-12-08T08:07:50;0.77;;;0.73;;
22697;SDS011;11516;51.612;7.510;2022-12-08T08:10:16;0.80;;;0.80;;
22697;SDS011;11516;51.612;7.510;2022-12-08T08:12:41;4.30;;;2.25;;
22697;SDS011;11516;51.612;7.510;2022-12-08T08:15:07;1.60;;;1.20;;
22697;SDS011;11516;51.612;7.510;2022-12-08T08:17:34;1.80;;;1.70;;
22697;SDS011;11516;51.612;7.510;2022-12-08T08:20:02;1.33;;;0.95;;
22697;SDS011;11516;51.612;7.510;2022-12-08T08:22:30;0.93;;;0.93;;
22697;SDS011;11516;51.612;7.510;2022-12-08T08:24:57;1.67;;;1.58;;
22697;SDS011;11516;51.612;7.510;2022-12-08T08:27:22;1.23;;;1.20;;
22697;SDS011;11516;51.612;7.510;2022-12-08T08:29:49;0.60;;;0.60;;
22697;SDS011;11516;51.612;7.510;2022-12-08T08:32:14;1.83;;;1.58;;
22697;SDS011;11516;51.612;7.510;2022-12-08T08:34:40;1.17;;;1.07;;
22697;SDS011;11516;51.612;7.510;2022-12-08T08:37:05;1.97;;;0.83;;
22697;SDS011;11516;51.612;7.510;2022-12-08T08:39:31;3.55;;;1.40;;
22697;SDS011;11516;51.612;7.510;2022-12-08T08:41:56;2.75;;;0.98;;
22697;SDS011;11516;51.612;7.510;2022-12-08T08:44:22;1.40;;;1.30;;
22697;SDS011;11516;51.612;7.510;2022-12-08T08:46:48;2.05;;;1.58;;
22697;SDS011;11516;51.612;7.510;2022-12-08T08:49:13;1.92;;;1.70;;
22697;SDS011;11516;51.612;7.510;2022-12-08T08:51:39;1.33;;;0.93;;
22697;SDS011;11516;51.612;7.510;2022-12-08T08:54:04;2.70;;;1.65;;
22697;SDS011;11516;51.612;7.510;2022-12-08T08:56:30;1.73;;;1.63;;
22697;SDS011;11516;51.612;7.510;2022-12-08T08:58:56;1.23;;;1.17;;
22697;SDS011;11516;51.612;7.510;2022-12-08T09:01:23;0.77;;;0.77;;
22697;SDS011;11516;51.612;7.510;2022-12-08T09:03:50;2.85;;;2.58;;
22697;SDS011;11516;51.612;7.510;2022-12-08T09:06:16;2.60;;;2.08;;
22697;SDS011;11516;51.612;7.510;2022-12-08T09:08:42;2.45;;;1.48;;
22697;SDS011;11516;51.612;7.510;2022-12-08T09:11:08;2.28;;;2.08;;
22697;SDS011;11516;51.612;7.510;2022-12-08T09:13:34;3.70;;;2.63;;
22697;SDS011;11516;51.612;7.510;2022-12-08T09:16:01;0.70;;;0.70;;
22697;SDS011;11516;51.612;7.510;2022-12-08T09:18:28;0.90;;;0.90;;
22697;SDS011;11516;51.612;7.510;2022-12-08T09:20:54;2.03;;;1.77;;
22697;SDS011;11516;51.612;7.510;2022-12-08T09:23:19;0.90;;;0.90;;
22697;SDS011;11516;51.612;7.510;2022-12-08T09:25:45;2.17;;;1.37;;
22697;SDS011;11516;51.612;7.510;2022-12-08T09:28:11;1.75;;;1.50;;
22697;SDS011;11516;51.612;7.510;2022-12-08T09:30:38;3.10;;;1.50;;
22697;SDS011;11516;51.612;7.510;2022-12-08T09:33:04;1.80;;;1.25;;
22697;SDS011;11516;51.612;7.510;2022-12-08T09:35:29;1.20;;;1.05;;
22697;SDS011;11516;51.612;7.510;2022-12-08T09:37:55;2.20;;;0.90;;
22697;SDS011;11516;51.612;7.510;2022-12-08T09:40:24;1.83;;;1.40;;
22697;SDS011;11516;51.612;7.510;2022-12-08T09:42:51;2.00;;;1.30;;
22697;SDS011;11516;51.612;7.510;2022-12-08T09:45:22;1.73;;;1.42;;
22697;SDS011;11516;51.612;7.510;2022-12-08T09:48:12;1.38;;;1.27;;
22697;SDS011;11516;51.612;7.510;2022-12-08T09:50:40;1.10;;;1.05;;
22697;SDS011;11516;51.612;7.510;2022-12-08T09:55:42;1.42;;;1.33;;
22697;SDS011;11516;51.612;7.510;2022-12-08T09:58:12;1.45;;;1.35;;
22697;SDS011;11516;51.612;7.510;2022-12-08T10:00:55;1.67;;;1.58;;
22697;SDS011;11516;51.612;7.510;2022-12-08T10:03:21;2.03;;;1.13;;
22697;SDS011;11516;51.612;7.510;2022-12-08T10:05:54;3.40;;;1.15;;
22697;SDS011;11516;51.612;7.510;2022-12-08T10:08:49;1.00;;;1.00;;
22697;SDS011;11516;51.612;7.510;2022-12-08T10:11:22;1.25;;;1.15;;
22697;SDS011;11516;51.612;7.510;2022-12-08T10:14:02;1.23;;;1.13;;
22697;SDS011;11516;51.612;7.510;2022-12-08T10:16:42;0.80;;;0.80;;
22697;SDS011;11516;51.612;7.510;2022-12-08T10:19:13;2.15;;;1.70;;
22697;SDS011;11516;51.612;7.510;2022-12-08T10:21:45;2.37;;;0.77;;
22697;SDS011;11516;51.612;7.510;2022-12-08T10:24:14;1.30;;;0.77;;
22697;SDS011;11516;51.612;7.510;2022-12-08T10:26:44;1.30;;;0.95;;
22697;SDS011;11516;51.612;7.510;2022-12-08T10:29:11;3.55;;;1.75;;
22697;SDS011;11516;51.612;7.510;2022-12-08T10:31:37;1.95;;;1.45;;
22697;SDS011;11516;51.612;7.510;2022-12-08T10:34:13;2.07;;;1.87;;
22697;SDS011;11516;51.612;7.510;2022-12-08T10:36:45;1.13;;;1.13;;
22697;SDS011;11516;51.612;7.510;2022-12-08T10:42:21;1.67;;;1.65;;
22697;SDS011;11516;51.612;7.510;2022-12-08T10:44:53;2.17;;;1.60;;
22697;SDS011;11516;51.612;7.510;2022-12-08T10:47:26;2.77;;;1.90;;
22697;SDS011;11516;51.612;7.510;2022-12-08T10:52:43;1.65;;;1.05;;
22697;SDS011;11516;51.612;7.510;2022-12-08T10:55:17;3.03;;;2.03;;
22697;SDS011;11516;51.612;7.510;2022-12-08T10:57:44;1.00;;;0.90;;
22697;SDS011;11516;51.612;7.510;2022-12-08T11:00:17;1.33;;;1.10;;
22697;SDS011;11516;51.612;7.510;2022-12-08T11:02:49;3.63;;;1.87;;
22697;SDS011;11516;51.612;7.510;2022-12-08T11:05:21;3.45;;;2.40;;
22697;SDS011;11516;51.612;7.510;2022-12-08T11:07:50;1.10;;;1.00;;
22697;SDS011;11516;51.612;7.510;2022-12-08T11:10:18;2.03;;;1.83;;
22697;SDS011;11516;51.612;7.510;2022-12-08T11:12:57;3.90;;;2.58;;
22697;SDS011;11516;51.612;7.510;2022-12-08T11:15:24;1.73;;;1.58;;
22697;SDS011;11516;51.612;7.510;2022-12-08T11:18:01;1.33;;;1.20;;
22697;SDS011;11516;51.612;7.510;2022-12-08T11:20:37;2.50;;;1.70;;
22697;SDS011;11516;51.612;7.510;2022-12-08T11:23:16;4.28;;;1.50;;
22697;SDS011;11516;51.612;7.510;2022-12-08T11:25:44;1.58;;;1.48;;
22697;SDS011;11516;51.612;7.510;2022-12-08T11:28:09;2.20;;;1.92;;
22697;SDS011;11516;51.612;7.510;2022-12-08T11:30:36;2.20;;;2.00;;
22697;SDS011;11516;51.612;7.510;2022-12-08T11:33:16;2.42;;;1.95;;
22697;SDS011;11516;51.612;7.510;2022-12-08T11:35:46;1.52;;;1.42;;
22697;SDS011;11516;51.612;7.510;2022-12-08T11:38:17;2.55;;;1.85;;
22697;SDS011;11516;51.612;7.510;2022-12-08T11:40:52;1.67;;;1.55;;
22697;SDS011;11516;51.612;7.510;2022-12-08T11:45:59;2.03;;;1.30;;
22697;SDS011;11516;51.612;7.510;2022-12-08T11:56:58;0.52;;;0.52;;
22697;SDS011;11516;51.612;7.510;2022-12-08T11:59:42;1.35;;;1.27;;
22697;SDS011;11516;51.612;7.510;2022-12-08T12:02:17;2.03;;;1.77;;
22697;SDS011;11516;51.612;7.510;2022-12-08T12:07:30;1.83;;;0.90;;
22697;SDS011;11516;51.612;7.510;2022-12-08T12:18:11;2.70;;;1.70;;
22697;SDS011;11516;51.612;7.510;2022-12-08T12:20:58;0.88;;;0.88;;
22697;SDS011;11516;51.612;7.510;2022-12-08T12:23:42;1.60;;;1.42;;
22697;SDS011;11516;51.612;7.510;2022-12-08T12:26:21;1.37;;;1.00;;
22697;SDS011;11516;51.612;7.510;2022-12-08T12:28:57;2.05;;;1.35;;
22697;SDS011;11516;51.612;7.510;2022-12-08T12:31:27;2.40;;;1.85;;
22697;SDS011;11516;51.612;7.510;2022-12-08T12:34:19;1.42;;;0.98;;
22697;SDS011;11516;51.612;7.510;2022-12-08T12:37:06;1.67;;;1.58;;
22697;SDS011;11516;51.612;7.510;2022-12-08T12:40:03;3.00;;;1.95;;
22697;SDS011;11516;51.612;7.510;2022-12-08T12:45:18;0.90;;;0.90;;
22697;SDS011;11516;51.612;7.510;2022-12-08T12:53:04;2.92;;;1.98;;
22697;SDS011;11516;51.612;7.510;2022-12-08T13:06:09;2.85;;;1.05;;
22697;SDS011;11516;51.612;7.510;2022-12-08T13:08:37;1.60;;;1.50;;
22697;SDS011;11516;51.612;7.510;2022-12-08T13:11:07;1.77;;;1.67;;
22697;SDS011;11516;51.612;7.510;2022-12-08T13:13:37;2.33;;;1.23;;
22697;SDS011;11516;51.612;7.510;2022-12-08T13:16:19;1.83;;;1.20;;
22697;SDS011;11516;51.612;7.510;2022-12-08T13:18:48;1.83;;;1.27;;
22697;SDS011;11516;51.612;7.510;2022-12-08T13:21:17;2.15;;;1.95;;
22697;SDS011;11516;51.612;7.510;2022-12-08T13:23:48;2.10;;;1.27;;
22697;SDS011;11516;51.612;7.510;2022-12-08T13:26:43;4.88;;;1.77;;
22697;SDS011;11516;51.612;7.510;2022-12-08T13:29:23;0.90;;;0.90;;
22697;SDS011;11516;51.612;7.510;2022-12-08T13:34:56;6.63;;;2.13;;
22697;SDS011;11516;51.612;7.510;2022-12-08T13:37:24;1.05;;;1.05;;
22697;SDS011;11516;51.612;7.510;2022-12-08T13:40:00;2.25;;;1.45;;
22697;SDS011;11516;51.612;7.510;2022-12-08T13:42:40;1.30;;;1.20;;
22697;SDS011;11516;51.612;7.510;2022-12-08T13:47:43;2.78;;;1.58;;
22697;SDS011;11516;51.612;7.510;2022-12-08T13:52:35;3.25;;;2.20;;
22697;SDS011;11516;51.612;7.510;2022-12-08T13:55:16;3.20;;;1.10;;
22697;SDS011;11516;51.612;7.510;2022-12-08T13:57:49;2.63;;;1.83;;
22697;SDS011;11516;51.612;7.510;2022-12-08T14:00:18;2.13;;;1.33;;
22697;SDS011;11516;51.612;7.510;2022-12-08T14:02:46;1.52;;;1.42;;
22697;SDS011;11516;51.612;7.510;2022-12-08T14:05:14;1.55;;;1.38;;
22697;SDS011;11516;51.612;7.510;2022-12-08T14:07:41;1.38;;;0.77;;
22697;SDS011;11516;51.612;7.510;2022-12-08T14:10:08;2.40;;;1.17;;
22697;SDS011;11516;51.612;7.510;2022-12-08T14:12:46;2.10;;;1.17;;
22697;SDS011;11516;51.612;7.510;2022-12-08T14:15:16;10.05;;;2.53;;
22697;SDS011;11516;51.612;7.510;2022-12-08T14:17:50;1.45;;;1.35;;
22697;SDS011;11516;51.612;7.510;2022-12-08T14:22:50;1.35;;;1.25;;
22697;SDS011;11516;51.612;7.510;2022-12-08T14:25:17;2.90;;;1.40;;
22697;SDS011;11516;51.612;7.510;2022-12-08T14:27:43;1.58;;;1.48;;
22697;SDS011;11516;51.612;7.510;2022-12-08T14:32:42;2.75;;;2.10;;
22697;SDS011;11516;51.612;7.510;2022-12-08T14:35:16;1.00;;;0.85;;
22697;SDS011;11516;51.612;7.510;2022-12-08T14:37:43;6.03;;;2.38;;
22697;SDS011;11516;51.612;7.510;2022-12-08T14:42:46;3.78;;;1.98;;
22697;SDS011;11516;51.612;7.510;2022-12-08T14:45:16;5.00;;;3.35;;
22697;SDS011;11516;51.612;7.510;2022-12-08T14:47:43;4.80;;;1.83;;
22697;SDS011;11516;51.612;7.510;2022-12-08T14:53:17;3.33;;;2.13;;
22697;SDS011;11516;51.612;7.510;2022-12-08T14:55:46;2.27;;;2.07;;
22697;SDS011;11516;51.612;7.510;2022-12-08T14:58:31;2.20;;;1.83;;
22697;SDS011;11516;51.612;7.510;2022-12-08T15:00:57;2.08;;;1.70;;
22697;SDS011;11516;51.612;7.510;2022-12-08T15:03:25;1.30;;;1.23;;
22697;SDS011;11516;51.612;7.510;2022-12-08T15:05:54;5.03;;;1.55;;
22697;SDS011;11516;51.612;7.510;2022-12-08T15:08:23;4.03;;;2.60;;
22697;SDS011;11516;51.612;7.510;2022-12-08T15:13:45;1.60;;;1.50;;
22697;SDS011;11516;51.612;7.510;2022-12-08T15:19:15;1.83;;;1.73;;
22697;SDS011;11516;51.612;7.510;2022-12-08T15:21:43;3.10;;;1.92;;
22697;SDS011;11516;51.612;7.510;2022-12-08T15:24:12;1.83;;;1.73;;
22697;SDS011;11516;51.612;7.510;2022-12-08T15:26:43;1.10;;;1.10;;
22697;SDS011;11516;51.612;7.510;2022-12-08T15:31:50;5.13;;;2.97;;
22697;SDS011;11516;51.612;7.510;2022-12-08T15:34:17;2.42;;;2.17;;
22697;SDS011;11516;51.612;7.510;2022-12-08T15:36:43;2.55;;;2.20;;
22697;SDS011;11516;51.612;7.510;2022-12-08T15:41:58;2.80;;;1.38;;
22697;SDS011;11516;51.612;7.510;2022-12-08T15:44:24;2.30;;;2.10;;
22697;SDS011;11516;51.612;7.510;2022-12-08T15:46:51;5.30;;;2.87;;
22697;SDS011;11516;51.612;7.510;2022-12-08T15:49:20;2.08;;;1.88;;
22697;SDS011;11516;51.612;7.510;2022-12-08T15:51:48;1.63;;;1.35;;
22697;SDS011;11516;51.612;7.510;2022-12-08T15:54:14;2.60;;;1.40;;
22697;SDS011;11516;51.612;7.510;2022-12-08T15:56:48;1.30;;;1.17;;
22697;SDS011;11516;51.612;7.510;2022-12-08T15:59:16;1.95;;;1.52;;
22697;SDS011;11516;51.612;7.510;2022-12-08T16:01:46;0.90;;;0.90;;
22697;SDS011;11516;51.612;7.510;2022-12-08T16:04:15;1.80;;;1.33;;
22697;SDS011;11516;51.612;7.510;2022-12-08T16:06:52;2.30;;;1.95;;
22697;SDS011;11516;51.612;7.510;2022-12-08T16:09:27;2.15;;;1.23;;
22697;SDS011;11516;51.612;7.510;2022-12-08T16:11:58;1.05;;;0.98;;
22697;SDS011;11516;51.612;7.510;2022-12-08T16:14:42;1.95;;;1.85;;
22697;SDS011;11516;51.612;7.510;2022-12-08T16:17:15;2.30;;;1.30;;
22697;SDS011;11516;51.612;7.510;2022-12-08T16:19:41;0.70;;;0.70;;
22697;SDS011;11516;51.612;7.510;2022-12-08T16:22:15;1.55;;;1.45;;
22697;SDS011;11516;51.612;7.510;2022-12-08T16:24:43;1.13;;;1.02;;
22697;SDS011;11516;51.612;7.510;2022-12-08T16:27:17;2.05;;;1.48;;
22697;SDS011;11516;51.612;7.510;2022-12-08T16:29:48;3.22;;;2.22;;
22697;SDS011;11516;51.612;7.510;2022-12-08T16:32:14;2.08;;;1.90;;